Time;durP1;ratioP1;P1;durP2;ratioP2;P2;SDS_P1;SDS_P2;PMS_P1;PMS_P2;Temp;Humidity;BMP_temperature;BMP_pressure;BME280_temperature;BME280_humidity;BME280_pressure;Samples;Min_cycle;Max_cycle;Signal;HPM_P1;HPM_P2
2022/08/29 00:00:06;;;;;;;6.45;2.97;;;20.30;99.90;;;;;;10443800;28;20226;-77
2022/08/29 00:05:34;;;;;;;7.90;3.00;;;20.20;99.90;;;;;;10505573;28;20192;-77
2022/08/29 00:10:55;;;;;;;4.95;3.20;;;20.30;99.90;;;;;;10496358;28;20259;-78
2022/08/29 00:16:17;;;;;;;5.60;2.70;;;20.30;99.90;;;;;;10440298;28;20227;-78
2022/08/29 00:21:39;;;;;;;6.20;2.85;;;20.20;99.90;;;;;;10440668;28;20227;-78
2022/08/29 00:27:00;;;;;;;7.57;3.35;;;20.20;99.90;;;;;;10440124;28;20200;-78
2022/08/29 00:32:22;;;;;;;7.75;3.58;;;20.10;99.90;;;;;;10440159;28;20264;-77
2022/08/29 00:38:14;;;;;;;8.48;3.20;;;20.10;99.90;;;;;;10439586;28;20197;-76
2022/08/29 00:43:36;;;;;;;7.20;2.83;;;20.00;99.90;;;;;;10440545;28;20197;-77
2022/08/29 00:49:29;;;;;;;4.90;3.13;;;20.00;99.90;;;;;;10438012;28;20193;-78
2022/08/29 00:54:52;;;;;;;8.40;3.78;;;;;;;;;;10438937;28;20196;-78
2022/08/29 01:00:14;;;;;;;6.75;2.90;;;;;;;;;;10442236;28;20290;-77
2022/08/29 01:05:36;;;;;;;8.90;3.15;;;;;;;;;;10504358;28;20191;-79
2022/08/29 01:16:38;;;;;;;11.80;3.67;;;;;;;;;;10439266;28;20193;-75
2022/08/29 01:22:03;;;;;;;7.82;3.80;;;;;;;;;;10437806;28;20240;-75
2022/08/29 01:27:27;;;;;;;10.55;4.00;;;;;;;;;;10437541;28;20200;-75
2022/08/29 01:32:49;;;;;;;6.45;3.38;;;19.70;99.90;;;;;;10437085;28;20197;-77
2022/08/29 01:38:26;;;;;;;6.55;3.50;;;19.70;99.90;;;;;;10437329;28;20204;-78
2022/08/29 01:43:52;;;;;;;6.20;3.10;;;19.60;99.90;;;;;;10423166;28;20277;-73
2022/08/29 01:49:15;;;;;;;9.68;3.78;;;19.50;99.90;;;;;;10436878;28;20192;-76
2022/08/29 01:54:36;;;;;;;7.63;3.58;;;19.40;99.90;;;;;;10436841;28;20216;-76
2022/08/29 01:59:58;;;;;;;9.60;4.20;;;19.30;99.90;;;;;;10438052;28;20224;-75
2022/08/29 02:05:22;;;;;;;7.43;2.97;;;19.20;99.90;;;;;;10501109;28;20192;-78
2022/08/29 02:10:44;;;;;;;9.32;4.10;;;19.20;99.90;;;;;;10496765;28;20261;-74
2022/08/29 02:16:05;;;;;;;9.45;3.65;;;19.10;99.90;;;;;;10437228;28;20192;-74
2022/08/29 02:21:29;;;;;;;5.70;3.08;;;19.00;99.90;;;;;;10436126;28;20240;-74
2022/08/29 02:26:51;;;;;;;10.48;3.60;;;18.90;99.90;;;;;;10437152;28;20193;-77
2022/08/29 02:32:14;;;;;;;9.25;3.45;;;19.00;99.90;;;;;;10421439;28;20204;-74
2022/08/29 02:37:35;;;;;;;6.95;3.65;;;18.90;99.90;;;;;;10436733;28;20191;-75
2022/08/29 02:42:57;;;;;;;6.05;3.38;;;18.90;99.90;;;;;;10421762;28;20232;-74
2022/08/29 02:48:18;;;;;;;10.80;3.67;;;;;;;;;;10436733;28;20188;-76
2022/08/29 02:53:40;;;;;;;6.68;3.10;;;17.80;99.90;;;;;;10435739;28;20227;-75
2022/08/29 02:59:01;;;;;;;10.52;3.58;;;18.60;99.90;;;;;;10435921;28;20521;-75
2022/08/29 03:04:23;;;;;;;6.50;3.38;;;18.60;99.90;;;;;;10487122;28;20210;-75
2022/08/29 03:09:44;;;;;;;7.13;3.45;;;18.50;99.90;;;;;;10511893;28;20193;-75
2022/08/29 03:15:07;;;;;;;9.77;4.00;;;18.40;99.90;;;;;;10441241;28;20227;-74
2022/08/29 03:20:28;;;;;;;8.27;3.30;;;18.30;99.90;;;;;;10442853;28;20216;-77
2022/08/29 03:25:51;;;;;;;12.20;4.20;;;;;;;;;;10443390;28;20275;-74
2022/08/29 03:31:13;;;;;;;13.05;3.47;;;18.20;99.90;;;;;;10443022;28;20197;-75
2022/08/29 03:37:05;;;;;;;14.48;4.25;;;18.10;99.90;;;;;;10442267;28;20443;-76
2022/08/29 03:42:53;;;;;;;9.35;3.95;;;18.20;99.90;;;;;;10442458;28;20232;-74
2022/08/29 03:48:15;;;;;;;9.10;3.92;;;17.80;99.90;;;;;;10442771;28;20203;-78
2022/08/29 03:53:37;;;;;;;6.93;3.92;;;17.80;99.90;;;;;;10442414;28;20290;-78
2022/08/29 03:58:58;;;;;;;8.68;3.90;;;17.90;99.90;;;;;;10442067;28;20215;-76
2022/08/29 04:15:19;;;;;;;5.18;3.45;;;17.90;99.90;;;;;;10440927;28;20204;-74
2022/08/29 04:20:43;;;;;;;6.38;3.58;;;18.00;99.90;;;;;;10441366;28;20223;-75
2022/08/29 04:26:13;;;;;;;9.32;3.63;;;18.00;99.90;;;;;;10439425;28;20240;-74
2022/08/29 04:31:51;;;;;;;6.93;3.20;;;18.10;99.90;;;;;;10425626;28;20204;-74
2022/08/29 04:37:13;;;;;;;8.93;3.50;;;18.10;99.90;;;;;;10439924;28;20193;-74
2022/08/29 04:42:36;;;;;;;5.15;3.22;;;18.10;99.90;;;;;;10440112;28;20247;-75
2022/08/29 04:47:57;;;;;;;10.80;3.90;;;18.10;99.90;;;;;;10439571;28;20211;-75
2022/08/29 04:53:22;;;;;;;9.25;3.63;;;18.10;99.90;;;;;;10439173;28;20201;-75
2022/08/29 04:58:44;;;;;;;8.52;3.80;;;18.10;99.90;;;;;;10439920;28;20259;-75
2022/08/29 05:04:05;;;;;;;9.23;4.05;;;18.20;99.90;;;;;;10485630;28;20316;-75
2022/08/29 05:09:27;;;;;;;8.15;3.45;;;18.30;99.90;;;;;;10504336;28;20195;-75
2022/08/29 05:14:49;;;;;;;8.25;3.60;;;18.30;99.90;;;;;;10439420;28;20357;-75
2022/08/29 05:20:11;;;;;;;8.40;3.65;;;18.40;99.90;;;;;;10437841;28;20228;-76
2022/08/29 05:25:32;;;;;;;7.40;3.80;;;18.50;99.90;;;;;;10438453;28;20228;-75
2022/08/29 05:30:54;;;;;;;6.43;3.15;;;18.60;99.90;;;;;;10438670;28;20196;-75
2022/08/29 05:36:16;;;;;;;10.60;4.15;;;18.80;99.90;;;;;;10437946;28;20231;-75
2022/08/29 05:41:36;;;;;;;9.25;3.22;;;18.90;99.90;;;;;;10436815;28;20228;-74
2022/08/29 05:46:59;;;;;;;3.33;2.63;;;19.00;99.90;;;;;;10438136;28;20261;-74
2022/08/29 05:52:20;;;;;;;3.88;2.90;;;19.10;99.90;;;;;;10436429;28;20200;-74
2022/08/29 05:57:50;;;;;;;5.07;2.55;;;19.30;99.90;;;;;;10436383;28;20211;-74
2022/08/29 06:03:12;;;;;;;6.10;2.97;;;19.60;99.90;;;;;;10417808;28;20230;-77
2022/08/29 06:08:34;;;;;;;3.53;2.42;;;19.60;99.90;;;;;;10519017;28;20503;-76
2022/08/29 06:13:56;;;;;;;6.15;2.70;;;19.60;99.90;;;;;;10442590;28;20208;-75
2022/08/29 06:19:17;;;;;;;5.60;2.78;;;19.70;99.90;;;;;;10437237;28;20518;-75
2022/08/29 06:24:39;;;;;;;5.13;2.65;;;20.00;99.90;;;;;;10435585;28;20705;-74
2022/08/29 06:30:00;;;;;;;5.40;2.60;;;20.30;99.90;;;;;;10436958;28;20192;-74
2022/08/29 06:35:22;;;;;;;4.10;2.72;;;20.60;99.90;;;;;;10436645;28;20196;-75
2022/08/29 06:40:43;;;;;;;6.85;2.83;;;20.80;99.90;;;;;;10435623;28;20224;-78
2022/08/29 06:46:07;;;;;;;4.95;1.98;;;20.60;99.90;;;;;;10437231;28;20382;-75
2022/08/29 06:51:31;;;;;;;7.18;3.03;;;20.50;99.90;;;;;;10443549;28;20552;-75
2022/08/29 06:56:53;;;;;;;2.92;2.15;;;20.40;99.90;;;;;;10443521;28;20258;-75
2022/08/29 07:02:14;;;;;;;11.20;4.00;;;20.60;99.90;;;;;;10464242;28;20234;-75
2022/08/29 07:07:35;;;;;;;6.55;3.08;;;20.80;99.90;;;;;;10526300;28;20183;-75
2022/08/29 07:12:57;;;;;;;5.60;2.42;;;21.10;99.90;;;;;;10465228;28;20557;-75
2022/08/29 07:18:18;;;;;;;12.05;2.08;;;22.10;99.90;;;;;;10429021;28;20243;-75
2022/08/29 07:23:40;;;;;;;3.10;1.48;;;22.70;99.90;;;;;;10441978;28;20248;-75
2022/08/29 07:29:05;;;;;;;2.88;1.50;;;24.40;98.30;;;;;;10442354;28;20415;-76
2022/08/29 07:34:27;;;;;;;2.38;1.55;;;24.50;97.50;;;;;;10441508;28;20220;-76
2022/08/29 07:39:49;;;;;;;4.10;1.85;;;24.00;97.90;;;;;;10441929;28;20404;-76
2022/08/29 07:45:11;;;;;;;2.45;1.48;;;23.40;99.40;;;;;;10442673;28;20262;-79
2022/08/29 08:06:33;;;;;;;3.13;1.40;;;26.20;80.10;;;;;;10514084;28;20199;-78
2022/08/29 08:11:54;;;;;;;4.53;1.40;;;25.70;82.50;;;;;;10481537;28;20200;-77
2022/08/29 08:17:15;;;;;;;3.55;1.88;;;27.00;77.50;;;;;;10439969;28;20208;-77
2022/08/29 08:22:37;;;;;;;1.40;1.20;;;27.00;68.90;;;;;;10441021;28;20240;-78
2022/08/29 08:27:58;;;;;;;2.35;1.20;;;26.30;72.20;;;;;;10440125;28;20375;-74
2022/08/29 08:33:20;;;;;;;4.93;1.65;;;25.60;79.30;;;;;;10440731;28;20435;-78
2022/08/29 08:38:43;;;;;;;3.40;1.55;;;26.10;73.90;;;;;;10439832;28;20201;-77
2022/08/29 08:44:39;;;;;;;3.63;1.77;;;25.50;80.00;;;;;;10439807;28;20216;-78
2022/08/29 08:50:17;;;;;;;1.88;1.38;;;25.70;81.30;;;;;;10381777;28;20209;-77
2022/08/29 08:55:48;;;;;;;1.75;1.33;;;25.10;77.80;;;;;;10395390;28;20205;-78
2022/08/29 09:01:20;;;;;;;3.05;1.67;;;25.10;82.60;;;;;;10370237;28;20324;-78
2022/08/29 09:06:44;;;;;;;1.75;1.58;;;25.40;77.50;;;;;;10373324;28;20272;-78
2022/08/29 09:12:35;;;;;;;2.85;1.55;;;25.30;80.30;;;;;;10379962;28;20220;-79
2022/08/29 09:18:10;;;;;;;3.72;1.50;;;26.80;67.30;;;;;;10394439;28;20228;-76
2022/08/29 09:23:44;;;;;;;3.78;1.63;;;27.40;55.30;;;;;;10401073;28;20240;-76
2022/08/29 09:29:08;;;;;;;2.58;1.60;;;28.70;46.30;;;;;;10437720;28;20189;-77
2022/08/29 09:34:37;;;;;;;4.28;2.00;;;29.10;37.40;;;;;;10423331;28;20227;-79
2022/08/29 09:40:19;;;;;;;4.25;2.15;;;29.10;34.90;;;;;;10438084;28;20406;-77
2022/08/29 09:46:22;;;;;;;4.57;1.90;;;27.80;37.20;;;;;;10437757;28;20263;-79
2022/08/29 09:51:47;;;;;;;3.65;2.10;;;27.20;40.50;;;;;;10437816;28;20239;-77
2022/08/29 09:57:20;;;;;;;3.92;2.22;;;27.90;37.50;;;;;;10437679;28;20208;-77
2022/08/29 10:02:42;;;;;;;3.53;1.98;;;28.00;35.00;;;;;;10461182;28;20541;-79
2022/08/29 10:08:05;;;;;;;3.33;2.00;;;27.80;34.50;;;;;;10520271;28;20454;-80
2022/08/29 10:13:39;;;;;;;3.35;1.98;;;29.00;34.40;;;;;;10451505;28;20275;-79
2022/08/29 10:19:10;;;;;;;3.65;1.90;;;29.80;29.40;;;;;;10422139;28;20212;-77
2022/08/29 10:24:50;;;;;;;5.38;1.98;;;30.40;26.00;;;;;;10421440;28;20287;-76
2022/08/29 10:30:48;;;;;;;7.05;1.88;;;29.90;23.80;;;;;;10421460;28;20388;-76
2022/08/29 10:36:18;;;;;;;3.13;1.50;;;29.50;25.10;;;;;;10435824;28;20224;-77
2022/08/29 10:42:10;;;;;;;1.80;1.60;;;30.20;24.40;;;;;;10421374;28;20239;-78
2022/08/29 10:47:35;;;;;;;5.50;1.67;;;30.60;21.50;;;;;;10435227;28;20200;-79
2022/08/29 10:53:13;;;;;;;2.53;1.92;;;30.20;21.20;;;;;;10436317;28;20243;-78
2022/08/29 10:58:45;;;;;;;3.97;1.70;;;30.30;22.70;;;;;;10421344;28;20424;-78
2022/08/29 11:04:49;;;;;;;3.33;1.75;;;30.80;19.50;;;;;;10481984;28;20231;-77
2022/08/29 11:10:39;;;;;;;4.03;1.70;;;31.00;19.20;;;;;;10494558;28;20507;-78
2022/08/29 11:16:09;;;;;;;8.60;2.28;;;30.30;19.60;;;;;;10435019;28;20220;-77
2022/08/29 11:21:44;;;;;;;3.63;1.90;;;30.30;20.30;;;;;;10434692;28;20253;-77
2022/08/29 11:27:25;;;;;;;7.03;1.50;;;29.60;20.40;;;;;;10420427;28;20248;-78
2022/08/29 11:33:03;;;;;;;5.00;1.52;;;29.50;20.90;;;;;;10434678;28;20201;-76
2022/08/29 11:38:34;;;;;;;3.28;1.77;;;29.50;20.50;;;;;;10442149;28;20219;-77
2022/08/29 11:44:33;;;;;;;7.70;1.98;;;29.60;20.30;;;;;;10441409;28;20372;-76
2022/08/29 11:50:01;;;;;;;2.65;1.55;;;29.80;20.30;;;;;;10442497;28;20215;-77
2022/08/29 11:55:30;;;;;;;2.45;1.38;;;30.60;18.70;;;;;;10442165;28;20199;-76
2022/08/29 12:00:56;;;;;;;2.55;1.55;;;30.90;16.70;;;;;;10450177;28;20548;-76
2022/08/29 12:06:37;;;;;;;1.67;1.20;;;30.80;15.90;;;;;;10512004;28;20253;-78
2022/08/29 12:12:04;;;;;;;2.45;1.33;;;30.60;16.50;;;;;;10480056;28;20284;-77
2022/08/29 12:17:27;;;;;;;1.90;1.40;;;30.90;16.10;;;;;;10426651;28;20200;-76
2022/08/29 12:22:58;;;;;;;2.35;1.40;;;31.20;15.20;;;;;;10440262;28;20263;-76
2022/08/29 12:28:31;;;;;;;1.45;1.20;;;31.10;14.60;;;;;;10441220;28;20421;-76
2022/08/29 12:34:44;;;;;;;2.45;1.27;;;30.30;15.50;;;;;;10439971;28;20239;-76
2022/08/29 12:40:22;;;;;;;8.43;1.38;;;29.30;17.70;;;;;;10425699;28;20224;-77
2022/08/29 12:45:45;;;;;;;4.00;1.60;;;29.00;18.10;;;;;;10439017;28;20205;-76
2022/08/29 12:51:08;;;;;;;3.30;1.35;;;29.30;17.50;;;;;;10439118;28;20197;-76
2022/08/29 13:03:32;;;;;;;3.67;1.38;;;29.20;16.50;;;;;;10476133;28;20417;-78
2022/08/29 13:09:43;;;;;;;2.58;1.13;;;28.50;20.70;;;;;;10522229;28;20195;-77
2022/08/29 13:15:05;;;;;;;1.42;1.20;;;26.50;75.80;;;;;;10439152;28;20201;-76
2022/08/29 13:20:41;;;;;;;2.35;1.30;;;25.20;81.60;;;;;;10438911;28;20287;-75
2022/08/29 13:26:19;;;;;;;1.20;1.10;;;24.10;95.70;;;;;;10438479;28;20232;-75
2022/08/29 13:31:41;;;;;;;2.72;1.35;;;23.90;99.90;;;;;;10459728;28;20192;-76
2022/08/29 13:37:06;;;;;;;1.35;1.10;;;24.10;98.70;;;;;;10479706;28;20234;-76
2022/08/29 13:42:30;;;;;;;1.63;1.48;;;24.70;96.30;;;;;;10479649;28;20291;-75
2022/08/29 13:48:22;;;;;;;2.50;0.95;;;25.10;93.80;;;;;;10479543;28;20218;-75
2022/08/29 13:53:44;;;;;;;3.13;1.20;;;24.90;91.10;;;;;;10463624;28;20202;-75
2022/08/29 13:59:06;;;;;;;1.20;0.80;;;24.60;91.50;;;;;;10477212;28;20211;-76
2022/08/29 14:04:27;;;;;;;2.67;1.08;;;24.30;91.70;;;;;;10492088;28;20222;-75
2022/08/29 14:09:58;;;;;;;6.40;2.80;;;24.10;92.40;;;;;;10509701;28;20276;-74
2022/08/29 14:15:19;;;;;;;4.13;1.90;;;24.10;93.20;;;;;;10436900;28;20276;-74
2022/08/29 14:20:41;;;;;;;2.15;1.38;;;24.20;93.20;;;;;;10436660;28;20224;-74
2022/08/29 14:26:03;;;;;;;2.22;1.35;;;24.40;92.60;;;;;;10436782;28;20227;-74
2022/08/29 14:31:24;;;;;;;5.45;1.50;;;24.60;92.30;;;;;;10436051;28;20215;-75
2022/08/29 14:36:45;;;;;;;4.50;1.92;;;24.60;90.90;;;;;;10436577;28;20234;-75
2022/08/29 14:42:06;;;;;;;2.67;1.70;;;24.60;90.50;;;;;;10436543;28;20224;-75
2022/08/29 14:47:28;;;;;;;5.45;1.25;;;24.80;89.30;;;;;;10435942;28;20192;-75
2022/08/29 14:52:49;;;;;;;3.22;1.20;;;24.80;87.80;;;;;;10435306;28;20222;-75
2022/08/29 14:58:10;;;;;;;2.10;1.50;;;25.00;89.90;;;;;;10436239;28;20192;-75
2022/08/29 15:03:32;;;;;;;2.47;1.17;;;25.00;90.10;;;;;;10473437;28;20223;-75
2022/08/29 15:08:53;;;;;;;2.38;1.60;;;24.60;91.50;;;;;;10520693;28;20421;-75
2022/08/29 15:14:14;;;;;;;1.52;1.27;;;24.20;93.80;;;;;;10445343;28;20200;-74
2022/08/29 15:19:36;;;;;;;4.35;1.65;;;23.80;95.70;;;;;;10443899;28;20368;-77
2022/08/29 15:25:18;;;;;;;4.05;1.30;;;23.60;95.30;;;;;;10443466;28;20219;-78
2022/08/29 15:30:40;;;;;;;2.17;1.35;;;23.40;95.80;;;;;;10443677;28;20192;-77
2022/08/29 15:36:02;;;;;;;3.70;1.40;;;23.20;96.30;;;;;;10442501;28;20216;-78
2022/08/29 15:41:24;;;;;;;2.20;1.23;;;23.10;96.80;;;;;;10441759;28;20250;-78
2022/08/29 15:46:45;;;;;;;2.10;1.45;;;23.10;96.50;;;;;;10441352;28;20271;-78
2022/08/29 15:52:06;;;;;;;3.50;1.15;;;22.80;95.80;;;;;;10442606;28;20388;-78
2022/08/29 15:57:28;;;;;;;3.10;1.30;;;22.70;96.20;;;;;;10441736;28;20193;-79
2022/08/29 16:02:50;;;;;;;3.28;1.45;;;22.70;97.10;;;;;;10466945;28;20273;-79
2022/08/29 16:08:12;;;;;;;3.78;1.20;;;22.70;98.30;;;;;;10524107;28;20245;-76
2022/08/29 16:13:33;;;;;;;5.70;2.08;;;22.60;97.90;;;;;;10454508;28;20491;-79
2022/08/29 16:18:55;;;;;;;3.13;1.77;;;22.60;98.10;;;;;;10439804;28;20196;-77
2022/08/29 16:24:17;;;;;;;3.78;1.30;;;22.50;97.90;;;;;;10440226;28;20240;-76
2022/08/29 16:29:39;;;;;;;2.38;1.27;;;22.30;98.30;;;;;;10439916;28;20266;-77
2022/08/29 16:35:00;;;;;;;3.95;1.65;;;22.10;99.10;;;;;;10426102;28;20208;-79
2022/08/29 16:40:22;;;;;;;4.55;1.35;;;22.00;99.30;;;;;;10440943;28;20250;-79
2022/08/29 16:45:43;;;;;;;2.78;1.38;;;21.90;99.90;;;;;;10439624;28;20491;-78
2022/08/29 16:51:06;;;;;;;2.47;1.50;;;;;;;;;;10440383;28;20196;-78
2022/08/29 16:56:27;;;;;;;3.80;1.90;;;21.60;99.90;;;;;;10439938;28;20203;-78
2022/08/29 17:01:49;;;;;;;4.57;1.45;;;;;;;;;;10455541;28;20220;-76
2022/08/29 17:07:11;;;;;;;2.92;1.50;;;21.20;99.90;;;;;;10518349;28;20206;-76
2022/08/29 17:17:54;;;;;;;3.33;1.33;;;21.00;99.90;;;;;;10439107;28;20487;-78
2022/08/29 17:23:16;;;;;;;2.20;1.30;;;21.00;99.90;;;;;;10438701;28;20290;-79
2022/08/29 17:28:38;;;;;;;3.75;1.38;;;21.00;99.90;;;;;;10438631;28;20192;-78
2022/08/29 17:34:00;;;;;;;2.85;1.17;;;20.80;99.90;;;;;;10437927;28;20197;-78
2022/08/29 17:39:23;;;;;;;2.17;1.13;;;20.80;99.90;;;;;;10438412;28;20207;-78
2022/08/29 17:44:44;;;;;;;5.50;1.67;;;20.50;99.90;;;;;;10438261;28;20235;-79
2022/08/29 17:50:06;;;;;;;4.95;1.33;;;20.50;99.90;;;;;;10438386;28;20275;-78
2022/08/29 17:55:27;;;;;;;1.45;1.00;;;20.50;99.90;;;;;;10437819;28;20206;-78
2022/08/29 18:00:50;;;;;;;3.78;1.20;;;20.40;99.90;;;;;;10444186;28;20303;-77
2022/08/29 18:06:12;;;;;;;3.13;1.27;;;;;;;;;;10507922;28;20233;-76
2022/08/29 18:11:39;;;;;;;1.67;1.35;;;;;;;;;;10482127;28;20204;-77
2022/08/29 18:17:00;;;;;;;3.10;1.50;;;20.20;99.90;;;;;;10436546;28;20196;-77
2022/08/29 18:22:22;;;;;;;2.28;1.08;;;20.10;99.90;;;;;;10436935;28;20263;-75
2022/08/29 18:27:43;;;;;;;2.45;1.40;;;20.00;99.90;;;;;;10435844;28;20192;-76
2022/08/29 18:33:05;;;;;;;1.63;1.02;;;19.90;99.90;;;;;;10436979;28;20199;-76
2022/08/29 18:38:27;;;;;;;2.15;1.40;;;19.90;99.90;;;;;;10435532;28;20201;-76
2022/08/29 18:43:50;;;;;;;4.05;2.20;;;19.90;99.90;;;;;;10440001;28;20534;-77
2022/08/29 18:49:12;;;;;;;3.70;1.80;;;19.80;99.90;;;;;;10445219;28;20192;-78
2022/08/29 18:54:33;;;;;;;3.67;1.88;;;19.80;99.90;;;;;;10415932;28;20203;-77
2022/08/29 18:59:56;;;;;;;2.53;1.67;;;;;;;;;;10444077;28;20267;-78
2022/08/29 19:05:21;;;;;;;3.88;1.60;;;19.30;99.90;;;;;;10506885;28;20459;-78
2022/08/29 19:10:44;;;;;;;2.30;1.40;;;19.40;99.90;;;;;;10504102;28;20440;-77
2022/08/29 19:22:10;;;;;;;3.63;1.83;;;;;;;;;;10443844;28;20469;-76
2022/08/29 19:27:39;;;;;;;2.58;1.40;;;;;;;;;;10414727;28;20196;-77
2022/08/29 19:46:22;;;;;;;3.13;1.45;;;19.10;99.90;;;;;;10442148;28;20192;-78
2022/08/29 19:52:02;;;;;;;4.40;1.35;;;19.10;99.90;;;;;;10442854;28;20294;-77
2022/08/29 20:02:44;;;;;;;2.47;1.17;;;19.00;99.90;;;;;;10465614;28;20238;-76
2022/08/29 20:08:06;;;;;;;3.78;1.40;;;19.00;99.90;;;;;;10524131;28;20191;-75
2022/08/29 20:13:28;;;;;;;6.07;1.58;;;;;;;;;;10455539;28;20278;-76
2022/08/29 20:19:02;;;;;;;6.00;1.98;;;;;;;;;;10441764;28;20380;-76
2022/08/29 20:24:23;;;;;;;2.47;1.13;;;;;;;;;;10439957;28;20314;-75
2022/08/29 20:29:45;;;;;;;4.07;1.83;;;;;;;;;;10441217;28;20188;-76
2022/08/29 20:35:07;;;;;;;2.88;1.30;;;;;;;;;;10440089;28;20200;-76
2022/08/29 20:40:28;;;;;;;4.15;1.55;;;;;;;;;;10440679;28;20381;-76
2022/08/29 20:45:50;;;;;;;3.90;1.38;;;;;;;;;;10440681;28;20200;-75
2022/08/29 20:51:12;;;;;;;4.47;1.52;;;;;;;;;;10438862;28;20204;-76
2022/08/29 20:56:33;;;;;;;3.13;1.30;;;18.80;99.90;;;;;;10440253;28;20192;-76
2022/08/29 21:01:55;;;;;;;2.80;1.27;;;18.70;99.90;;;;;;10456102;28;20540;-76
2022/08/29 21:07:17;;;;;;;4.57;1.58;;;18.60;99.90;;;;;;10504019;28;20381;-75
2022/08/29 21:12:38;;;;;;;8.15;1.58;;;18.50;99.90;;;;;;10438311;28;20212;-76
2022/08/29 21:17:59;;;;;;;3.67;1.27;;;18.60;99.90;;;;;;10439332;28;20188;-75
2022/08/29 21:23:23;;;;;;;3.35;1.00;;;18.70;99.90;;;;;;10423410;28;20254;-75
2022/08/29 21:28:45;;;;;;;2.38;1.10;;;18.80;99.90;;;;;;10437862;28;20259;-76
2022/08/29 21:34:09;;;;;;;6.32;1.52;;;18.70;99.90;;;;;;10480059;28;20199;-76
2022/08/29 21:39:30;;;;;;;3.92;1.42;;;18.70;99.90;;;;;;10465176;28;20187;-75
2022/08/29 21:44:54;;;;;;;3.25;1.10;;;18.60;99.90;;;;;;10478802;28;20223;-76
2022/08/29 21:50:15;;;;;;;2.25;0.80;;;18.60;99.90;;;;;;10464297;28;20196;-76
2022/08/29 21:55:37;;;;;;;1.75;0.85;;;18.60;99.90;;;;;;10463771;28;20200;-75
2022/08/29 22:00:58;;;;;;;3.45;0.85;;;18.50;99.90;;;;;;10478959;28;20191;-76
2022/08/29 22:06:20;;;;;;;2.03;0.90;;;18.40;99.90;;;;;;10509219;28;20196;-76
2022/08/29 22:11:44;;;;;;;1.17;0.80;;;18.40;99.90;;;;;;10480025;28;20204;-75
2022/08/29 22:17:06;;;;;;;3.40;1.35;;;18.40;99.90;;;;;;10421866;28;20557;-76
2022/08/29 22:22:27;;;;;;;1.35;0.88;;;18.30;99.90;;;;;;10435919;28;20239;-76
2022/08/29 22:27:48;;;;;;;2.60;0.98;;;18.30;99.90;;;;;;10437017;28;20192;-76
2022/08/29 22:33:09;;;;;;;1.20;0.82;;;18.30;99.90;;;;;;10436795;28;20242;-76
2022/08/29 22:38:32;;;;;;;3.75;1.42;;;18.30;99.90;;;;;;10435936;28;20199;-75
2022/08/29 22:43:54;;;;;;;4.45;1.10;;;18.30;99.90;;;;;;10435832;28;20427;-76
2022/08/29 22:49:28;;;;;;;2.17;1.23;;;18.40;99.90;;;;;;10423107;28;20276;-76
2022/08/29 22:54:50;;;;;;;2.15;1.00;;;18.30;99.90;;;;;;10436629;28;20192;-76
2022/08/29 23:00:15;;;;;;;1.90;0.90;;;18.30;99.90;;;;;;10410422;28;20215;-75
2022/08/29 23:05:36;;;;;;;3.58;1.35;;;18.30;99.90;;;;;;10486706;28;20302;-76
2022/08/29 23:10:58;;;;;;;2.22;0.88;;;18.30;99.90;;;;;;10492517;28;20201;-75
2022/08/29 23:16:21;;;;;;;0.93;0.68;;;18.20;99.90;;;;;;10436263;28;20267;-79
2022/08/29 23:21:43;;;;;;;1.60;0.70;;;18.20;99.90;;;;;;10435906;28;20283;-78
2022/08/29 23:27:04;;;;;;;0.90;0.50;;;18.20;99.90;;;;;;10436084;28;20392;-79
2022/08/29 23:32:27;;;;;;;1.02;0.77;;;18.20;99.90;;;;;;10441264;28;20196;-78
2022/08/29 23:37:48;;;;;;;1.20;0.50;;;18.10;99.90;;;;;;10442537;28;20192;-78
2022/08/29 23:43:10;;;;;;;1.63;0.52;;;18.10;99.90;;;;;;10442172;28;20287;-78
2022/08/29 23:48:32;;;;;;;1.15;0.50;;;18.10;99.90;;;;;;10427728;28;20274;-79
2022/08/29 23:53:53;;;;;;;1.27;0.50;;;18.20;99.90;;;;;;10441959;28;20267;-79
